createdAt,value
2019-01-10T00:00:31.513Z,100430.80
2019-01-10T00:01:07.053Z,100429.05
2019-01-10T00:01:42.718Z,100432.06
2019-01-10T00:02:18.122Z,100432.05
2019-01-10T00:02:53.514Z,100427.39
2019-01-10T00:03:28.917Z,100431.66
2019-01-10T00:04:04.956Z,100429.09
2019-01-10T00:04:40.331Z,100433.33
2019-01-10T00:05:15.831Z,100429.50
2019-01-10T00:05:51.586Z,100427.80
2019-01-10T00:06:26.961Z,100426.52
2019-01-10T00:07:02.357Z,100435.91
2019-01-10T00:07:38.250Z,100431.66
2019-01-10T00:08:13.649Z,100430.80
2019-01-10T00:08:49.050Z,100431.23
2019-01-10T00:09:24.531Z,100428.67
2019-01-10T00:09:59.929Z,100433.73
2019-01-10T00:10:35.596Z,100431.62
2019-01-10T00:11:11.382Z,100435.46
2019-01-10T00:11:46.764Z,100430.35
2019-01-10T00:12:22.211Z,100436.28
2019-01-10T00:12:57.610Z,100435.03
2019-01-10T00:13:32.989Z,100432.05
2019-01-10T00:14:08.388Z,100438.88
2019-01-10T00:14:44.068Z,100432.94
2019-01-10T00:15:19.438Z,100442.72
2019-01-10T00:15:54.930Z,100441.05
2019-01-10T00:16:30.317Z,100448.69
2019-01-10T00:17:05.951Z,100448.69
2019-01-10T00:17:41.388Z,100442.73
2019-01-10T00:18:17.307Z,100443.55
2019-01-10T00:18:52.720Z,100442.30
2019-01-10T00:19:28.127Z,100446.11
2019-01-10T00:20:03.718Z,100448.70
2019-01-10T00:20:39.369Z,100447.42
2019-01-10T00:21:14.747Z,100449.97
2019-01-10T00:21:50.137Z,100451.22
2019-01-10T00:22:25.644Z,100445.26
2019-01-10T00:23:01.102Z,100452.08
2019-01-10T00:23:36.486Z,100452.92
2019-01-10T00:24:12.184Z,100458.03
2019-01-10T00:24:47.562Z,100455.05
2019-01-10T00:25:23.205Z,100449.54
2019-01-10T00:25:58.672Z,100458.44
2019-01-10T00:26:34.261Z,100461.87
2019-01-10T00:27:09.631Z,100461.47
2019-01-10T00:27:45.629Z,100461.44
2019-01-10T00:28:21.046Z,100462.72
2019-01-10T00:28:56.434Z,100458.46
2019-01-10T00:29:31.823Z,100460.16
2019-01-10T00:30:11.020Z,100452.93
2019-01-10T00:30:46.418Z,100460.17
2019-01-10T00:31:22.110Z,100461.02
2019-01-10T00:31:57.540Z,100454.20
2019-01-10T00:32:33.204Z,100464.84
2019-01-10T00:33:08.882Z,100459.77
2019-01-10T00:33:44.539Z,100469.14
2019-01-10T00:34:19.954Z,100466.98
2019-01-10T00:34:55.351Z,100463.57
2019-01-10T00:35:30.809Z,100471.23
2019-01-10T00:36:06.270Z,100469.14
2019-01-10T00:36:41.670Z,100477.63
2019-01-10T00:37:17.059Z,100464.85
2019-01-10T00:37:52.762Z,100474.25
2019-01-10T00:38:28.160Z,100466.56
2019-01-10T00:39:04.197Z,100462.72
2019-01-10T00:39:39.652Z,100466.56
2019-01-10T00:40:15.468Z,100470.82
2019-01-10T00:40:50.954Z,100480.19
2019-01-10T00:41:26.362Z,100467.86
2019-01-10T00:42:02.009Z,100477.66
2019-01-10T00:42:37.791Z,100475.52
2019-01-10T00:43:13.457Z,100478.06
2019-01-10T00:43:48.857Z,100473.84
2019-01-10T00:44:24.249Z,100471.25
2019-01-10T00:44:59.666Z,100477.22
2019-01-10T00:45:35.316Z,100477.66
2019-01-10T00:46:10.816Z,100478.48
2019-01-10T00:46:46.201Z,100480.61
2019-01-10T00:47:23.173Z,100477.22
2019-01-10T00:47:58.594Z,100482.77
2019-01-10T00:48:33.994Z,100481.48
2019-01-10T00:49:09.377Z,100484.47
2019-01-10T00:49:45.065Z,100487.45
2019-01-10T00:50:22.562Z,100483.59
2019-01-10T00:50:58.050Z,100489.16
2019-01-10T00:51:33.715Z,100491.69
2019-01-10T00:52:09.341Z,100485.30
2019-01-10T00:52:44.920Z,100493.79
2019-01-10T00:53:20.580Z,100489.53
2019-01-10T00:53:55.962Z,100483.59
2019-01-10T00:54:31.703Z,100492.96
2019-01-10T00:55:07.415Z,100485.75
2019-01-10T00:55:42.991Z,100492.55
2019-01-10T00:56:18.529Z,100487.02
2019-01-10T00:56:53.941Z,100489.56
2019-01-10T00:57:29.362Z,100494.66
2019-01-10T00:58:04.776Z,100494.22
2019-01-10T00:58:40.418Z,100495.50
2019-01-10T00:59:18.062Z,100489.11
2019-01-10T00:59:53.144Z,100489.56
2019-01-10T01:00:28.935Z,100494.25
2019-01-10T01:01:04.427Z,100501.48
2019-01-10T01:01:40.105Z,100495.52
2019-01-10T01:02:15.480Z,100500.22
2019-01-10T01:02:51.014Z,100504.91
2019-01-10T01:03:26.475Z,100501.49
2019-01-10T01:04:01.867Z,100506.62
2019-01-10T01:04:37.325Z,100509.61
2019-01-10T01:05:13.775Z,100504.47
2019-01-10T01:05:49.470Z,100502.36
2019-01-10T01:06:25.005Z,100506.62
2019-01-10T01:07:00.415Z,100505.34
2019-01-10T01:07:35.766Z,100515.14
2019-01-10T01:08:11.174Z,100518.52
2019-01-10T01:08:46.570Z,100511.30
2019-01-10T01:09:22.188Z,100508.73
2019-01-10T01:09:58.468Z,100505.31
2019-01-10T01:10:33.887Z,100516.84
2019-01-10T01:11:09.536Z,100510.84
2019-01-10T01:11:44.925Z,100502.34
2019-01-10T01:12:20.381Z,100512.16
2019-01-10T01:12:58.636Z,100509.16
2019-01-10T01:13:32.996Z,100510.45
2019-01-10T01:14:08.379Z,100516.84
2019-01-10T01:14:43.814Z,100511.30
2019-01-10T01:15:19.628Z,100517.69
2019-01-10T01:15:55.334Z,100509.59
2019-01-10T01:16:30.838Z,100513.02
2019-01-10T01:17:06.333Z,100514.27
2019-01-10T01:17:41.980Z,100520.66
2019-01-10T01:18:17.383Z,100516.82
2019-01-10T01:18:53.574Z,100513.44
2019-01-10T01:19:28.996Z,100515.13
2019-01-10T01:20:05.353Z,100515.97
2019-01-10T01:20:41.051Z,100517.67
2019-01-10T01:21:16.436Z,100519.38
2019-01-10T01:21:51.943Z,100513.87
2019-01-10T01:22:27.359Z,100516.84
2019-01-10T01:23:02.839Z,100518.09
2019-01-10T01:23:38.348Z,100517.24
2019-01-10T01:24:14.221Z,100525.78
2019-01-10T01:24:50.195Z,100522.81
2019-01-10T01:25:25.860Z,100526.22
2019-01-10T01:26:01.514Z,100525.78
2019-01-10T01:26:36.906Z,100524.92
2019-01-10T01:27:12.307Z,100530.89
2019-01-10T01:27:47.716Z,100523.66
2019-01-10T01:28:23.173Z,100521.93
2019-01-10T01:28:58.561Z,100525.78
2019-01-10T01:29:33.948Z,100527.47
2019-01-10T01:30:15.040Z,100533.84
2019-01-10T01:30:50.580Z,100530.03
2019-01-10T01:31:26.188Z,100532.59
2019-01-10T01:32:01.577Z,100528.34
2019-01-10T01:32:37.564Z,100528.75
2019-01-10T01:33:13.231Z,100530.89
2019-01-10T01:33:48.662Z,100534.72
2019-01-10T01:34:24.244Z,100529.18
2019-01-10T01:34:59.715Z,100527.05
2019-01-10T01:35:35.105Z,100532.16
2019-01-10T01:36:10.483Z,100536.84
2019-01-10T01:36:45.882Z,100536.86
2019-01-10T01:37:21.368Z,100532.16
2019-01-10T01:37:56.819Z,100538.98
2019-01-10T01:38:32.477Z,100533.44
2019-01-10T01:39:09.055Z,100534.31
2019-01-10T01:39:44.725Z,100535.13
2019-01-10T01:40:20.689Z,100541.95
2019-01-10T01:40:56.099Z,100543.22
2019-01-10T01:41:31.617Z,100541.11
2019-01-10T01:42:07.380Z,100544.91
2019-01-10T01:42:42.774Z,100535.58
2019-01-10T01:43:18.490Z,100545.34
2019-01-10T01:43:53.907Z,100547.50
2019-01-10T01:44:29.542Z,100549.19
2019-01-10T01:45:05.727Z,100548.33
2019-01-10T01:45:41.112Z,100543.64
2019-01-10T01:46:16.509Z,100545.37
2019-01-10T01:46:51.919Z,100547.48
2019-01-10T01:47:27.323Z,100539.39
2019-01-10T01:48:02.722Z,100552.19
2019-01-10T01:48:38.729Z,100550.91
2019-01-10T01:49:15.972Z,100546.63
2019-01-10T01:49:51.348Z,100547.48
2019-01-10T01:50:27.007Z,100549.19
2019-01-10T01:51:02.419Z,100550.46
2019-01-10T01:51:37.885Z,100544.50
2019-01-10T01:52:13.284Z,100545.78
2019-01-10T01:52:48.739Z,100544.50
2019-01-10T01:53:24.523Z,100550.03
2019-01-10T01:54:00.213Z,100541.09
2019-01-10T01:54:35.586Z,100546.19
2019-01-10T01:55:11.183Z,100549.19
2019-01-10T01:55:46.849Z,100544.92
2019-01-10T01:56:22.378Z,100551.75
2019-01-10T01:56:57.800Z,100546.20
2019-01-10T01:57:33.455Z,100539.83
2019-01-10T01:58:09.152Z,100552.18
2019-01-10T01:58:44.606Z,100545.34
2019-01-10T01:59:20.344Z,100541.53
2019-01-10T01:59:55.904Z,100554.73
2019-01-10T02:00:31.489Z,100550.06
2019-01-10T02:01:06.818Z,100557.28
2019-01-10T02:01:42.194Z,100552.17
2019-01-10T02:02:18.012Z,100555.59
2019-01-10T02:02:53.418Z,100554.30
2019-01-10T02:03:29.101Z,100556.00
2019-01-10T02:04:04.509Z,100563.69
2019-01-10T02:04:40.230Z,100553.02
2019-01-10T02:05:15.793Z,100558.14
2019-01-10T02:05:51.242Z,100564.97
2019-01-10T02:06:26.665Z,100556.45
2019-01-10T02:07:02.310Z,100558.14
2019-01-10T02:07:38.321Z,100564.97
2019-01-10T02:08:13.755Z,100569.20
2019-01-10T02:08:49.317Z,100569.63
2019-01-10T02:09:24.722Z,100569.20
2019-01-10T02:10:00.350Z,100571.76
2019-01-10T02:10:35.714Z,100564.97
2019-01-10T02:11:11.365Z,100572.63
2019-01-10T02:11:47.051Z,100572.63
2019-01-10T02:12:22.593Z,100574.73
2019-01-10T02:12:57.995Z,100568.36
2019-01-10T02:13:33.424Z,100575.18
2019-01-10T02:14:08.857Z,100573.89
2019-01-10T02:14:44.315Z,100584.96
2019-01-10T02:15:19.716Z,100580.71
2019-01-10T02:15:55.124Z,100580.71
2019-01-10T02:16:30.533Z,100577.73
2019-01-10T02:17:06.023Z,100579.02
2019-01-10T02:17:48.746Z,100579.85
2019-01-10T02:18:19.001Z,100583.69
2019-01-10T02:18:54.760Z,100579.44
2019-01-10T02:19:30.202Z,100583.27
2019-01-10T02:20:06.190Z,100590.51
2019-01-10T02:20:41.599Z,100585.41
2019-01-10T02:21:17.004Z,100583.24
2019-01-10T02:21:52.554Z,100584.53
2019-01-10T02:22:28.032Z,100590.92
2019-01-10T02:23:03.438Z,100582.85
2019-01-10T02:23:39.070Z,100584.53
2019-01-10T02:24:14.491Z,100586.23
2019-01-10T02:24:49.964Z,100586.67
2019-01-10T02:25:25.381Z,100584.53
2019-01-10T02:26:01.005Z,100580.27
2019-01-10T02:26:36.407Z,100591.80
2019-01-10T02:27:11.816Z,100591.36
2019-01-10T02:27:47.226Z,100587.09
2019-01-10T02:28:22.621Z,100590.94
2019-01-10T02:28:58.156Z,100588.37
2019-01-10T02:29:33.835Z,100596.05
2019-01-10T02:30:12.479Z,100593.47
2019-01-10T02:30:47.865Z,100596.02
2019-01-10T02:31:23.665Z,100592.64
2019-01-10T02:31:59.139Z,100592.20
2019-01-10T02:32:34.598Z,100594.34
2019-01-10T02:33:09.987Z,100592.20
2019-01-10T02:33:45.365Z,100595.61
2019-01-10T02:34:21.168Z,100597.73
2019-01-10T02:34:56.894Z,100590.94
2019-01-10T02:35:32.293Z,100595.61
2019-01-10T02:36:07.698Z,100590.08
2019-01-10T02:36:43.086Z,100590.92
2019-01-10T02:37:18.596Z,100595.61
2019-01-10T02:37:54.016Z,100587.10
2019-01-10T02:38:29.415Z,100595.63
2019-01-10T02:39:07.023Z,100593.08
2019-01-10T02:39:42.696Z,100597.74
2019-01-10T02:40:18.465Z,100593.92
2019-01-10T02:40:53.980Z,100593.90
2019-01-10T02:41:29.503Z,100595.61
2019-01-10T02:42:04.944Z,100602.84
2019-01-10T02:42:40.614Z,100597.75
2019-01-10T02:43:15.999Z,100605.42
2019-01-10T02:43:51.442Z,100602.42
2019-01-10T02:44:26.844Z,100602.43
2019-01-10T02:45:02.319Z,100597.72
2019-01-10T02:45:37.715Z,100598.16
2019-01-10T02:46:13.120Z,100604.11
2019-01-10T02:46:48.594Z,100605.40
2019-01-10T02:47:24.143Z,100605.41
2019-01-10T02:47:59.618Z,100602.84
2019-01-10T02:48:35.013Z,100605.39
2019-01-10T02:49:10.435Z,100601.58
2019-01-10T02:49:46.119Z,100608.40
2019-01-10T02:50:24.405Z,100602.84
2019-01-10T02:50:59.813Z,100604.56
2019-01-10T02:51:35.201Z,100605.84
2019-01-10T02:52:10.666Z,100605.84
2019-01-10T02:52:46.338Z,100608.80
2019-01-10T02:53:21.775Z,100603.70
2019-01-10T02:53:57.469Z,100600.73
2019-01-10T02:54:33.166Z,100596.47
2019-01-10T02:55:08.693Z,100602.45
2019-01-10T02:55:44.619Z,100604.99
2019-01-10T02:56:20.459Z,100607.96
2019-01-10T02:56:56.266Z,100605.83
2019-01-10T02:57:31.918Z,100601.15
2019-01-10T02:58:07.584Z,100600.74
2019-01-10T02:58:43.063Z,100599.03
2019-01-10T02:59:21.652Z,100602.00
2019-01-10T02:59:57.305Z,100597.74
2019-01-10T03:00:32.686Z,100603.72
2019-01-10T03:01:08.126Z,100597.74
2019-01-10T03:01:43.841Z,100599.87
2019-01-10T03:02:19.238Z,100601.99
2019-01-10T03:02:54.997Z,100596.03
2019-01-10T03:03:30.436Z,100599.00
2019-01-10T03:04:05.844Z,100598.17
2019-01-10T03:04:41.250Z,100599.47
2019-01-10T03:05:16.741Z,100601.57
2019-01-10T03:05:52.566Z,100595.19
2019-01-10T03:06:27.974Z,100600.72
2019-01-10T03:07:03.387Z,100600.73
2019-01-10T03:07:38.785Z,100600.72
2019-01-10T03:08:14.452Z,100601.58
2019-01-10T03:08:50.144Z,100604.98
2019-01-10T03:09:25.667Z,100606.27
2019-01-10T03:10:01.167Z,100603.28
2019-01-10T03:10:36.584Z,100607.95
2019-01-10T03:11:11.984Z,100603.30
2019-01-10T03:11:47.459Z,100607.11
2019-01-10T03:12:22.883Z,100601.14
2019-01-10T03:12:58.286Z,100607.55
2019-01-10T03:13:36.868Z,100601.58
2019-01-10T03:14:11.028Z,100606.69
2019-01-10T03:14:46.734Z,100606.69
2019-01-10T03:15:22.220Z,100604.12
2019-01-10T03:15:57.742Z,100606.69
2019-01-10T03:16:33.129Z,100599.44
2019-01-10T03:17:08.805Z,100600.30
2019-01-10T03:17:44.179Z,100599.87
2019-01-10T03:18:19.577Z,100601.17
2019-01-10T03:18:54.969Z,100606.25
2019-01-10T03:19:30.413Z,100607.55
2019-01-10T03:20:07.850Z,100604.13
2019-01-10T03:20:43.502Z,100603.27
2019-01-10T03:21:18.888Z,100602.02
2019-01-10T03:21:55.161Z,100607.11
2019-01-10T03:22:30.864Z,100613.08
2019-01-10T03:23:06.290Z,100607.97
2019-01-10T03:23:41.663Z,100601.59
2019-01-10T03:24:17.049Z,100605.00
2019-01-10T03:24:52.883Z,100609.69
2019-01-10T03:25:28.364Z,100608.83
2019-01-10T03:26:03.785Z,100607.12
2019-01-10T03:26:39.184Z,100606.69
2019-01-10T03:27:14.856Z,100609.69
2019-01-10T03:27:50.295Z,100605.41
2019-01-10T03:28:25.697Z,100601.57
2019-01-10T03:29:01.407Z,100605.39
2019-01-10T03:29:36.861Z,100604.57
2019-01-10T03:30:14.274Z,100599.45
2019-01-10T03:30:50.116Z,100599.89
2019-01-10T03:31:25.523Z,100609.24
2019-01-10T03:32:00.907Z,100604.56
2019-01-10T03:32:36.298Z,100607.96
2019-01-10T03:33:11.706Z,100602.45
2019-01-10T03:33:47.126Z,100608.39
2019-01-10T03:34:22.565Z,100604.56
2019-01-10T03:34:57.980Z,100607.97
2019-01-10T03:35:33.368Z,100601.57
2019-01-10T03:36:08.772Z,100603.72
2019-01-10T03:36:44.161Z,100600.73
2019-01-10T03:37:19.646Z,100600.73
2019-01-10T03:37:55.094Z,100607.97
2019-01-10T03:38:30.790Z,100607.53
2019-01-10T03:39:08.681Z,100599.45
2019-01-10T03:39:44.395Z,100603.70
2019-01-10T03:40:21.797Z,100598.17
2019-01-10T03:40:57.318Z,100597.31
2019-01-10T03:41:32.727Z,100598.17
2019-01-10T03:42:08.495Z,100597.73
2019-01-10T03:42:43.899Z,100602.84
2019-01-10T03:43:19.310Z,100604.55
2019-01-10T03:43:54.761Z,100597.76
2019-01-10T03:44:34.407Z,100604.12
2019-01-10T03:45:09.778Z,100602.45
2019-01-10T03:45:45.159Z,100599.03
2019-01-10T03:46:20.804Z,100597.31
2019-01-10T03:46:56.239Z,100598.59
2019-01-10T03:47:31.640Z,100602.84
2019-01-10T03:48:07.015Z,100599.47
2019-01-10T03:48:42.409Z,100605.85
2019-01-10T03:49:18.060Z,100599.89
2019-01-10T03:49:53.568Z,100596.47
2019-01-10T03:50:29.043Z,100600.74
2019-01-10T03:51:04.729Z,100600.74
2019-01-10T03:51:40.101Z,100598.19
2019-01-10T03:52:15.497Z,100598.59
2019-01-10T03:52:51.057Z,100596.04
2019-01-10T03:53:26.705Z,100594.77
2019-01-10T03:54:02.232Z,100592.22
2019-01-10T03:54:37.637Z,100588.80
2019-01-10T03:55:13.092Z,100587.53
2019-01-10T03:55:48.839Z,100587.52
2019-01-10T03:56:24.274Z,100589.65
2019-01-10T03:56:59.726Z,100594.34
2019-01-10T03:57:35.120Z,100588.78
2019-01-10T03:58:10.755Z,100593.50
2019-01-10T03:58:46.425Z,100592.22
2019-01-10T03:59:22.027Z,100596.48
2019-01-10T03:59:57.498Z,100592.63
2019-01-10T04:00:32.893Z,100592.20
2019-01-10T04:01:08.289Z,100593.48
2019-01-10T04:01:43.761Z,100596.45
2019-01-10T04:02:19.156Z,100593.05
2019-01-10T04:02:54.584Z,100596.90
2019-01-10T04:03:30.609Z,100593.90
2019-01-10T04:04:05.983Z,100604.56
2019-01-10T04:04:41.393Z,100596.47
2019-01-10T04:05:16.922Z,100598.18
2019-01-10T04:05:52.718Z,100595.20
2019-01-10T04:06:28.729Z,100602.85
2019-01-10T04:07:04.404Z,100596.91
2019-01-10T04:07:40.022Z,100602.00
2019-01-10T04:08:15.401Z,100597.31
2019-01-10T04:08:50.939Z,100601.14
2019-01-10T04:09:26.510Z,100596.90
2019-01-10T04:10:01.965Z,100599.45
2019-01-10T04:10:37.372Z,100596.45
2019-01-10T04:11:13.033Z,100598.59
2019-01-10T04:11:48.710Z,100602.02
2019-01-10T04:12:24.162Z,100601.58
2019-01-10T04:12:59.611Z,100599.03
2019-01-10T04:13:35.573Z,100599.02
2019-01-10T04:14:11.253Z,100599.44
2019-01-10T04:14:46.740Z,100601.16
2019-01-10T04:15:22.190Z,100603.27
2019-01-10T04:15:57.606Z,100604.13
2019-01-10T04:16:33.100Z,100600.30
2019-01-10T04:17:08.501Z,100602.02
2019-01-10T04:17:43.890Z,100598.61
2019-01-10T04:18:19.568Z,100599.03
2019-01-10T04:18:55.110Z,100601.15
2019-01-10T04:19:30.518Z,100595.19
2019-01-10T04:20:06.460Z,100602.43
2019-01-10T04:20:41.839Z,100607.95
2019-01-10T04:21:17.747Z,100599.45
2019-01-10T04:21:53.229Z,100602.44
2019-01-10T04:22:28.652Z,100601.59
2019-01-10T04:23:04.055Z,100601.59
2019-01-10T04:23:39.546Z,100599.03
2019-01-10T04:24:14.943Z,100603.28
2019-01-10T04:24:50.345Z,100601.16
2019-01-10T04:25:25.843Z,100603.72
2019-01-10T04:26:01.267Z,100603.27
2019-01-10T04:26:36.639Z,100604.56
2019-01-10T04:27:12.285Z,100600.73
2019-01-10T04:27:47.803Z,100600.73
2019-01-10T04:28:23.259Z,100602.00
2019-01-10T04:28:58.723Z,100600.74
2019-01-10T04:29:34.110Z,100596.05
2019-01-10T04:30:12.498Z,100609.64
2019-01-10T04:30:48.010Z,100603.72
2019-01-10T04:31:23.436Z,100603.26
2019-01-10T04:31:58.875Z,100604.97
2019-01-10T04:32:34.515Z,100601.16
2019-01-10T04:33:09.961Z,100599.87
2019-01-10T04:33:45.671Z,100602.44
2019-01-10T04:34:21.136Z,100602.44
2019-01-10T04:34:56.623Z,100608.41
2019-01-10T04:35:32.050Z,100605.83
2019-01-10T04:36:07.690Z,100607.95
2019-01-10T04:36:43.202Z,100598.61
2019-01-10T04:37:18.610Z,100602.86
2019-01-10T04:37:54.062Z,100606.69
2019-01-10T04:38:29.851Z,100605.40
2019-01-10T04:39:08.307Z,100604.99
2019-01-10T04:39:44.098Z,100608.38
2019-01-10T04:40:22.793Z,100602.00
2019-01-10T04:40:58.232Z,100607.98
2019-01-10T04:41:33.739Z,100608.80
2019-01-10T04:42:09.142Z,100607.95
2019-01-10T04:42:44.509Z,100609.25
2019-01-10T04:43:20.314Z,100607.09
2019-01-10T04:43:56.064Z,100615.63
2019-01-10T04:44:31.452Z,100609.64
2019-01-10T04:45:07.452Z,100617.34
2019-01-10T04:45:42.847Z,100617.75
2019-01-10T04:46:18.482Z,100623.72
2019-01-10T04:46:53.912Z,100616.05
2019-01-10T04:47:29.326Z,100617.34
2019-01-10T04:48:04.738Z,100619.45
2019-01-10T04:48:40.119Z,100622.01
2019-01-10T04:49:15.542Z,100616.05
2019-01-10T04:49:51.025Z,100619.02
2019-01-10T04:50:26.503Z,100619.89
2019-01-10T04:51:02.215Z,100611.38
2019-01-10T04:51:37.676Z,100619.03
2019-01-10T04:52:13.390Z,100626.72
2019-01-10T04:52:48.845Z,100616.06
2019-01-10T04:53:26.700Z,100617.74
2019-01-10T04:54:01.929Z,100619.87
2019-01-10T04:54:38.421Z,100620.30
2019-01-10T04:55:14.640Z,100624.13
2019-01-10T04:55:50.132Z,100624.56
2019-01-10T04:56:25.870Z,100623.73
2019-01-10T04:57:01.279Z,100625.86
2019-01-10T04:57:36.696Z,100626.72
2019-01-10T04:58:12.098Z,100625.44
2019-01-10T04:58:47.473Z,100630.53
2019-01-10T04:59:22.993Z,100620.31
2019-01-10T04:59:58.422Z,100627.13
2019-01-10T05:00:33.858Z,100625.44
2019-01-10T05:01:09.240Z,100627.58
2019-01-10T05:01:44.638Z,100636.08
2019-01-10T05:02:20.369Z,100624.56
2019-01-10T05:02:55.812Z,100632.25
2019-01-10T05:03:31.228Z,100631.80
2019-01-10T05:04:06.625Z,100631.83
2019-01-10T05:04:42.015Z,100634.80
2019-01-10T05:05:17.680Z,100626.69
2019-01-10T05:05:53.564Z,100633.11
2019-01-10T05:06:29.096Z,100639.05
2019-01-10T05:07:04.646Z,100638.64
2019-01-10T05:07:40.003Z,100643.73
2019-01-10T05:08:15.664Z,100637.34
2019-01-10T05:08:51.103Z,100633.94
2019-01-10T05:09:26.546Z,100634.79
2019-01-10T05:10:01.929Z,100638.62
2019-01-10T05:10:37.342Z,100639.91
2019-01-10T05:11:12.760Z,100634.38
2019-01-10T05:11:48.776Z,100638.19
2019-01-10T05:12:24.497Z,100634.80
2019-01-10T05:12:59.931Z,100638.63
2019-01-10T05:13:35.303Z,100630.52
2019-01-10T05:14:16.513Z,100630.53
2019-01-10T05:14:47.836Z,100634.38
2019-01-10T05:15:23.266Z,100632.23
2019-01-10T05:15:58.728Z,100640.75
2019-01-10T05:16:34.257Z,100634.38
2019-01-10T05:17:09.764Z,100633.96
2019-01-10T05:17:45.152Z,100640.33
2019-01-10T05:18:20.581Z,100643.73
2019-01-10T05:18:56.015Z,100639.07
2019-01-10T05:19:31.431Z,100636.49
2019-01-10T05:20:08.927Z,100633.52
2019-01-10T05:20:44.600Z,100641.18
2019-01-10T05:21:20.276Z,100638.20
2019-01-10T05:21:55.691Z,100649.30
2019-01-10T05:22:31.194Z,100648.43
2019-01-10T05:23:06.602Z,100644.60
2019-01-10T05:23:42.008Z,100642.45
2019-01-10T05:24:17.399Z,100646.73
2019-01-10T05:24:52.853Z,100645.46
2019-01-10T05:25:28.303Z,100644.61
2019-01-10T05:26:03.988Z,100648.00
2019-01-10T05:26:39.376Z,100646.30
2019-01-10T05:27:14.764Z,100645.44
2019-01-10T05:27:50.152Z,100646.73
2019-01-10T05:28:25.573Z,100648.41
2019-01-10T05:29:00.978Z,100649.70
2019-01-10T05:29:36.387Z,100648.86
2019-01-10T05:30:25.463Z,100650.98
2019-01-10T05:31:01.172Z,100645.00
2019-01-10T05:31:36.557Z,100642.89
2019-01-10T05:32:11.970Z,100645.45
2019-01-10T05:32:47.388Z,100644.59
2019-01-10T05:33:22.813Z,100646.72
2019-01-10T05:33:58.237Z,100650.13
2019-01-10T05:34:33.673Z,100647.13
2019-01-10T05:35:09.086Z,100650.13
2019-01-10T05:35:44.505Z,100652.23
2019-01-10T05:36:20.390Z,100647.56
2019-01-10T05:36:55.828Z,100646.71
2019-01-10T05:37:31.255Z,100652.69
2019-01-10T05:38:06.670Z,100648.43
2019-01-10T05:38:42.048Z,100653.10
2019-01-10T05:39:17.755Z,100644.99
2019-01-10T05:39:53.318Z,100653.94
2019-01-10T05:40:29.338Z,100655.64
2019-01-10T05:41:04.755Z,100654.35
2019-01-10T05:41:40.399Z,100653.09
2019-01-10T05:42:15.794Z,100657.80
2019-01-10T05:42:51.234Z,100656.51
2019-01-10T05:43:26.672Z,100658.64
2019-01-10T05:44:02.107Z,100654.81
2019-01-10T05:44:37.521Z,100659.07
2019-01-10T05:45:14.079Z,100654.37
2019-01-10T05:45:49.869Z,100657.36
2019-01-10T05:46:25.326Z,100658.64
2019-01-10T05:47:01.012Z,100662.48
2019-01-10T05:47:36.431Z,100661.20
2019-01-10T05:48:11.852Z,100659.50
2019-01-10T05:48:47.480Z,100668.45
2019-01-10T05:49:22.965Z,100669.28
2019-01-10T05:49:58.390Z,100670.57
2019-01-10T05:50:33.786Z,100667.16
2019-01-10T05:51:09.218Z,100666.31
2019-01-10T05:51:44.609Z,100665.88
2019-01-10T05:52:20.045Z,100667.14
2019-01-10T05:52:55.450Z,100672.27
2019-01-10T05:53:30.857Z,100670.14
2019-01-10T05:54:06.348Z,100662.02
2019-01-10T05:54:41.776Z,100665.86
2019-01-10T05:55:19.258Z,100665.44
2019-01-10T05:55:54.750Z,100667.14
2019-01-10T05:56:30.265Z,100668.85
2019-01-10T05:57:05.636Z,100669.27
2019-01-10T05:57:41.033Z,100663.73
2019-01-10T05:58:16.407Z,100666.30
2019-01-10T05:58:51.832Z,100664.57
2019-01-10T05:59:27.237Z,100657.34
2019-01-10T06:00:02.907Z,100665.00
2019-01-10T06:00:38.332Z,100670.53
2019-01-10T06:01:14.414Z,100661.16
2019-01-10T06:01:49.845Z,100672.69
2019-01-10T06:02:25.642Z,100665.89
2019-01-10T06:03:01.144Z,100666.31
2019-01-10T06:03:36.538Z,100664.61
2019-01-10T06:04:12.566Z,100664.61
2019-01-10T06:04:48.121Z,100665.44
2019-01-10T06:05:23.989Z,100664.59
2019-01-10T06:05:59.436Z,100667.13
2019-01-10T06:06:35.026Z,100666.29
2019-01-10T06:07:10.714Z,100670.56
2019-01-10T06:07:46.083Z,100671.81
2019-01-10T06:08:21.551Z,100670.12
2019-01-10T06:08:56.952Z,100674.39
2019-01-10T06:09:32.441Z,100676.53
2019-01-10T06:10:11.344Z,100672.25
2019-01-10T06:10:46.723Z,100682.48
2019-01-10T06:11:22.300Z,100676.08
2019-01-10T06:11:58.007Z,100675.20
2019-01-10T06:12:33.398Z,100676.48
2019-01-10T06:13:08.817Z,100678.63
2019-01-10T06:13:44.201Z,100677.80
2019-01-10T06:14:19.633Z,100679.89
2019-01-10T06:14:55.334Z,100676.48
2019-01-10T06:15:30.772Z,100683.72
2019-01-10T06:16:06.228Z,100685.87
2019-01-10T06:16:41.937Z,100682.48
2019-01-10T06:17:17.578Z,100687.58
2019-01-10T06:17:53.259Z,100682.45
2019-01-10T06:18:28.708Z,100671.82
2019-01-10T06:19:04.379Z,100684.61
2019-01-10T06:19:39.770Z,100680.32
2019-01-10T06:20:17.528Z,100680.33
2019-01-10T06:20:52.944Z,100684.17
2019-01-10T06:21:28.402Z,100689.69
2019-01-10T06:22:03.780Z,100686.71
2019-01-10T06:22:39.157Z,100685.44
2019-01-10T06:23:14.561Z,100686.71
2019-01-10T06:23:50.040Z,100682.03
2019-01-10T06:24:25.777Z,100685.41
2019-01-10T06:25:01.156Z,100684.13
2019-01-10T06:25:36.539Z,100687.56
2019-01-10T06:26:11.958Z,100685.84
2019-01-10T06:26:47.431Z,100688.41
2019-01-10T06:27:23.204Z,100687.13
2019-01-10T06:27:58.612Z,100690.53
2019-01-10T06:28:34.257Z,100686.68
2019-01-10T06:29:09.654Z,100691.75
2019-01-10T06:29:45.051Z,100687.53
2019-01-10T06:30:22.539Z,100693.09
2019-01-10T06:30:57.993Z,100692.23
2019-01-10T06:31:33.405Z,100691.77
2019-01-10T06:32:09.062Z,100693.45
2019-01-10T06:32:44.709Z,100696.02
2019-01-10T06:33:20.121Z,100697.70
2019-01-10T06:33:55.599Z,100699.41
2019-01-10T06:34:31.017Z,100701.55
2019-01-10T06:35:06.425Z,100701.55
2019-01-10T06:35:42.094Z,100689.63
2019-01-10T06:36:17.524Z,100698.53
2019-01-10T06:36:52.966Z,100700.64
2019-01-10T06:37:28.685Z,100701.08
2019-01-10T06:38:04.095Z,100697.25
2019-01-10T06:38:39.570Z,100696.86
2019-01-10T06:39:17.538Z,100706.19
2019-01-10T06:39:52.089Z,100701.10
2019-01-10T06:40:27.612Z,100703.66
2019-01-10T06:41:03.014Z,100705.77
2019-01-10T06:41:38.727Z,100699.38
2019-01-10T06:42:14.117Z,100697.25
2019-01-10T06:42:49.652Z,100697.72
2019-01-10T06:43:25.301Z,100699.41
2019-01-10T06:44:00.957Z,100698.13
2019-01-10T06:44:44.327Z,100702.81
2019-01-10T06:45:14.221Z,100698.56
2019-01-10T06:45:49.681Z,100699.88
2019-01-10T06:46:25.123Z,100696.47
2019-01-10T06:47:00.499Z,100705.37